Time;durP1;ratioP1;P1;durP2;ratioP2;P2;SDS_P1;SDS_P2;PMS_P1;PMS_P2;Temp;Humidity;BMP_temperature;BMP_pressure;BME280_temperature;BME280_humidity;BME280_pressure;Samples;Min_cycle;Max_cycle;Signal;HPM_P1;HPM_P2
2022/05/07 00:01:38;;;;;;;9.60;8.60;;;;;;;14.09;76.18;102338.53;5075612;28;20286;-35
2022/05/07 00:04:04;;;;;;;9.57;8.67;;;;;;;14.05;76.05;102331.84;5074857;28;20451;-34
2022/05/07 00:06:29;;;;;;;10.55;8.85;;;;;;;13.99;76.62;102330.00;5075236;28;20671;-34
2022/05/07 00:08:54;;;;;;;11.77;8.70;;;;;;;13.95;77.10;102331.50;5074933;28;20033;-34
2022/05/07 00:11:22;;;;;;;12.07;8.57;;;;;;;13.87;76.74;102326.31;5074624;28;20064;-34
2022/05/07 00:13:49;;;;;;;9.55;8.65;;;;;;;13.80;77.34;102329.06;5074774;28;20295;-35
2022/05/07 00:19:00;;;;;;;9.80;8.90;;;;;;;13.78;77.93;102320.28;5074934;28;20078;-34
2022/05/07 00:21:25;;;;;;;9.60;8.68;;;;;;;13.72;77.89;102313.00;5074588;28;20024;-35
2022/05/07 00:23:50;;;;;;;;;;;;;;;13.94;75.61;102316.22;5074297;28;20079;-35
2022/05/07 00:26:16;;;;;;;9.57;8.50;;;;;;;13.70;78.14;102309.66;5074285;28;19924;-35
2022/05/07 00:28:41;;;;;;;;;;;;;;;13.89;75.45;102322.31;5074441;28;20028;-34
2022/05/07 00:31:06;;;;;;;9.60;8.23;;;;;;;13.65;78.03;102312.19;5074413;28;19919;-35
2022/05/07 00:33:31;;;;;;;11.50;9.77;;;;;;;13.57;77.88;102301.56;5074474;28;20028;-34
2022/05/07 00:35:57;;;;;;;11.13;8.60;;;;;;;13.60;78.35;102312.84;5074139;28;20239;-34
2022/05/07 00:38:22;;;;;;;11.93;8.73;;;;;;;13.56;78.48;102314.31;5074039;28;20199;-34
2022/05/07 00:40:47;;;;;;;10.10;8.53;;;;;;;13.65;78.35;102314.91;5074226;28;20111;-34
2022/05/07 00:43:15;;;;;;;10.80;8.90;;;;;;;13.49;79.09;102296.38;5073628;28;20362;-34
2022/05/07 00:45:43;;;;;;;10.63;8.68;;;;;;;13.47;78.79;102302.03;5073887;28;20101;-34
2022/05/07 00:48:08;;;;;;;11.18;8.70;;;;;;;13.34;79.01;102286.59;5074194;28;20025;-34
2022/05/07 00:53:18;;;;;;;10.82;8.90;;;;;;;13.36;79.69;102299.97;5073480;28;20047;-34
2022/05/07 00:55:44;;;;;;;9.65;8.68;;;;;;;13.23;79.97;102289.16;5074045;28;20358;-34
2022/05/07 00:58:09;;;;;;;;;;;;;;;13.56;77.37;102305.31;5074082;28;20032;-34
2022/05/07 01:00:35;;;;;;;9.35;8.45;;;;;;;13.31;80.20;102297.88;5074289;28;19915;-34
2022/05/07 01:03:00;;;;;;;9.40;8.38;;;;;;;13.30;78.89;102300.81;5073441;28;20326;-34
2022/05/07 01:05:25;;;;;;;10.00;8.95;;;;;;;13.27;79.54;102304.78;5073503;28;20025;-34
2022/05/07 01:07:51;;;;;;;9.82;8.82;;;;;;;13.24;80.30;102304.41;5073166;28;20028;-35
2022/05/07 01:10:17;;;;;;;11.48;8.85;;;;;;;13.13;80.28;102286.84;5073559;28;20028;-34
2022/05/07 01:12:44;;;;;;;11.30;9.20;;;;;;;13.19;79.56;102302.28;5073573;28;20453;-34
2022/05/07 01:15:10;;;;;;;9.45;8.45;;;;;;;13.08;79.08;102284.78;5073622;28;20035;-35
2022/05/07 01:17:35;;;;;;;9.90;9.00;;;;;;;13.17;80.63;102287.25;5073631;28;20032;-34
2022/05/07 01:20:01;;;;;;;9.80;8.80;;;;;;;13.13;80.66;102284.97;5073271;28;20036;-34
2022/05/07 01:22:29;;;;;;;9.77;8.77;;;;;;;13.14;80.17;102275.78;5073512;28;20085;-34
2022/05/07 01:24:54;;;;;;;10.23;7.95;;;;;;;13.07;78.91;102296.66;5073225;28;20040;-34
2022/05/07 01:27:20;;;;;;;9.52;8.25;;;;;;;13.11;80.07;102284.31;5072901;28;20090;-35
2022/05/07 01:29:47;;;;;;;10.17;8.40;;;;;;;13.12;80.50;102288.72;5073155;28;20031;-34
2022/05/07 01:32:13;;;;;;;8.70;7.80;;;;;;;13.06;81.58;102284.13;5073361;28;20420;-34
2022/05/07 01:34:38;;;;;;;9.93;8.90;;;;;;;13.07;81.08;102290.41;5073128;28;20056;-34
2022/05/07 01:37:03;;;;;;;8.73;7.90;;;;;;;13.10;81.37;102277.25;5072224;28;20040;-34
2022/05/07 01:39:29;;;;;;;9.15;8.18;;;;;;;13.04;81.45;102278.09;5072679;28;20056;-34
2022/05/07 01:41:54;;;;;;;9.93;8.93;;;;;;;13.01;81.25;102291.25;5072736;28;20027;-34
2022/05/07 01:44:19;;;;;;;9.90;8.57;;;;;;;13.00;81.74;102279.56;5072973;28;20266;-34
2022/05/07 01:49:28;;;;;;;9.98;8.98;;;;;;;12.92;81.75;102284.38;5073504;28;20123;-34
2022/05/07 01:51:54;;;;;;;8.93;8.03;;;;;;;12.94;82.56;102282.31;5072937;28;20063;-34
2022/05/07 01:54:19;;;;;;;9.13;8.17;;;;;;;12.90;83.01;102276.44;5073386;28;20424;-34
2022/05/07 01:56:44;;;;;;;9.30;8.37;;;;;;;12.88;81.74;102263.09;5073022;28;20056;-34
2022/05/07 01:59:10;;;;;;;9.57;8.60;;;;;;;12.75;82.35;102248.72;5072901;28;20267;-34
2022/05/07 02:01:35;;;;;;;11.10;9.27;;;;;;;12.78;82.73;102253.69;5072477;28;20071;-34
2022/05/07 02:04:00;;;;;;;12.10;9.07;;;;;;;12.85;82.67;102273.53;5072519;28;20103;-34
2022/05/07 02:06:26;;;;;;;10.30;9.30;;;;;;;12.84;83.01;102263.72;5073605;28;20024;-34
2022/05/07 02:08:53;;;;;;;10.37;9.20;;;;;;;12.83;83.00;102267.47;5072454;28;20074;-34
2022/05/07 02:11:19;;;;;;;11.38;9.65;;;;;;;12.86;83.01;102267.06;5073001;28;20334;-34
2022/05/07 02:13:44;;;;;;;10.77;9.70;;;;;;;12.82;82.85;102269.34;5071070;28;20128;-34
2022/05/07 02:16:09;;;;;;;10.57;9.57;;;;;;;12.81;83.10;102261.44;5073113;28;20036;-34
2022/05/07 02:18:35;;;;;;;10.37;9.37;;;;;;;12.84;83.04;102267.28;5072998;28;20332;-34
2022/05/07 02:21:00;;;;;;;10.43;9.47;;;;;;;12.81;83.60;102254.13;5072640;28;20025;-34
2022/05/07 02:23:25;;;;;;;10.23;9.23;;;;;;;12.75;83.72;102249.53;5073233;28;20266;-34
2022/05/07 02:25:51;;;;;;;10.47;9.47;;;;;;;12.74;83.56;102247.03;5072906;28;20254;-34
2022/05/07 02:28:17;;;;;;;12.35;9.82;;;;;;;12.81;83.48;102258.72;5072592;28;20033;-34
2022/05/07 02:30:42;;;;;;;11.65;10.27;;;;;;;12.72;83.63;102249.13;5073344;28;20028;-34
2022/05/07 02:33:08;;;;;;;12.45;10.82;;;;;;;12.72;83.62;102244.53;5072534;28;20029;-34
2022/05/07 02:35:33;;;;;;;11.55;10.43;;;;;;;12.73;83.63;102250.78;5072700;28;20036;-34
2022/05/07 02:37:58;;;;;;;10.90;9.80;;;;;;;12.62;83.95;102244.94;5072491;28;20116;-34
2022/05/07 02:40:24;;;;;;;12.27;11.03;;;;;;;12.69;83.62;102250.38;5072706;28;20025;-34
2022/05/07 02:42:49;;;;;;;12.32;10.77;;;;;;;12.67;83.76;102247.03;5072590;28;20287;-34
2022/05/07 02:45:15;;;;;;;11.37;10.27;;;;;;;12.67;83.77;102236.19;5071149;28;20115;-34
2022/05/07 02:47:42;;;;;;;12.18;10.85;;;;;;;12.61;84.26;102245.16;5074513;28;20033;-34
2022/05/07 02:50:10;;;;;;;11.25;10.20;;;;;;;12.63;84.06;102241.19;5076294;28;20082;-34
2022/05/07 02:52:36;;;;;;;11.15;10.07;;;;;;;12.43;84.35;102224.09;5075991;28;20039;-34
2022/05/07 02:55:02;;;;;;;;;;;;;;;12.77;82.05;102244.72;5076270;28;20086;-35
2022/05/07 02:57:27;;;;;;;11.80;10.63;;;;;;;12.62;83.70;102244.13;5075865;28;19912;-35
2022/05/07 02:59:53;;;;;;;12.80;10.90;;;;;;;12.70;83.88;102240.38;5076135;28;20036;-34
2022/05/07 03:02:18;;;;;;;11.82;10.73;;;;;;;12.65;84.27;102240.16;5075711;28;20452;-35
2022/05/07 03:04:44;;;;;;;12.32;10.85;;;;;;;12.64;84.12;102244.75;5076474;28;20025;-34
2022/05/07 03:07:09;;;;;;;12.45;11.15;;;;;;;12.49;83.08;102228.72;5076007;28;20314;-34
2022/05/07 03:09:35;;;;;;;12.57;11.30;;;;;;;12.55;84.69;102243.31;5075648;28;20025;-34
2022/05/07 03:12:00;;;;;;;11.38;10.27;;;;;;;12.50;85.16;102235.78;5075741;28;20032;-34
2022/05/07 03:14:26;;;;;;;11.67;10.67;;;;;;;12.49;85.10;102234.13;5076068;28;20035;-34
2022/05/07 03:16:51;;;;;;;11.55;10.35;;;;;;;12.48;85.18;102232.44;5075682;28;20262;-34
2022/05/07 03:19:16;;;;;;;11.10;10.00;;;;;;;12.50;85.05;102246.66;5075933;28;20532;-34
2022/05/07 03:21:43;;;;;;;11.35;10.35;;;;;;;12.49;85.46;102242.28;5075548;28;20118;-34
2022/05/07 03:24:08;;;;;;;11.50;10.32;;;;;;;12.53;85.36;102248.91;5075418;28;20124;-34
2022/05/07 03:26:34;;;;;;;11.48;10.38;;;;;;;12.56;85.23;102250.41;5075759;28;20178;-35
2022/05/07 03:28:59;;;;;;;11.43;10.33;;;;;;;12.50;85.07;102243.94;5075325;28;20025;-34
2022/05/07 03:31:25;;;;;;;11.32;10.18;;;;;;;12.47;85.34;102246.22;5075871;28;20269;-34
2022/05/07 03:33:50;;;;;;;11.20;10.10;;;;;;;12.46;85.47;102241.84;5075266;28;20021;-34
2022/05/07 03:36:16;;;;;;;11.63;10.53;;;;;;;12.43;85.64;102240.38;5075540;28;20024;-34
2022/05/07 03:38:42;;;;;;;12.60;11.30;;;;;;;12.51;85.95;102252.91;5074950;28;20750;-34
2022/05/07 03:41:08;;;;;;;11.68;10.60;;;;;;;12.50;85.67;102253.97;5075866;28;20031;-34
2022/05/07 03:43:37;;;;;;;11.13;10.02;;;;;;;12.55;85.50;102251.44;5075069;28;20070;-34
2022/05/07 03:46:04;;;;;;;11.65;10.55;;;;;;;12.42;86.10;102257.69;5075343;28;20028;-34
2022/05/07 03:48:29;;;;;;;12.07;10.98;;;;;;;12.40;86.66;102259.81;5075035;28;20032;-34
2022/05/07 03:50:55;;;;;;;10.70;9.70;;;;;;;12.35;86.15;102257.72;5075279;28;20086;-34
2022/05/07 03:53:29;;;;;;;12.68;10.70;;;;;;;12.38;85.87;102254.56;5074990;28;20104;-34
2022/05/07 03:55:56;;;;;;;12.32;11.13;;;;;;;12.28;86.14;102237.03;5075622;28;20039;-34
2022/05/07 03:58:21;;;;;;;11.73;10.52;;;;;;;12.32;85.97;102239.13;5073883;28;20028;-34
2022/05/07 04:00:47;;;;;;;11.98;10.75;;;;;;;12.39;86.22;102255.38;5074748;28;20024;-34
2022/05/07 04:03:12;;;;;;;11.73;10.23;;;;;;;12.34;86.38;102247.03;5074602;28;20079;-34
2022/05/07 04:05:38;;;;;;;12.05;10.60;;;;;;;12.39;86.22;102255.38;5074740;28;20032;-34
2022/05/07 04:08:04;;;;;;;;;;;;;;;12.58;84.63;102253.72;5074967;28;20028;-34
2022/05/07 04:10:29;;;;;;;10.98;9.95;;;;;;;12.50;85.39;102249.34;5074899;28;19961;-34
2022/05/07 04:12:55;;;;;;;12.43;11.13;;;;;;;12.49;85.73;102250.41;5074140;28;20037;-34
2022/05/07 04:15:21;;;;;;;11.90;10.68;;;;;;;12.48;85.49;102256.03;5074911;28;20028;-34
2022/05/07 04:17:47;;;;;;;;;;;;;;;12.64;84.00;102263.75;5074789;28;20028;-34
2022/05/07 04:20:12;;;;;;;12.70;11.35;;;;;;;12.37;84.80;102252.06;5074092;28;20380;-34
2022/05/07 04:22:38;;;;;;;13.35;11.25;;;;;;;12.41;85.05;102255.22;5073898;28;20143;-34
2022/05/07 04:25:05;;;;;;;12.40;11.13;;;;;;;12.42;85.80;102270.44;5074161;28;20390;-34
2022/05/07 04:27:30;;;;;;;12.18;10.98;;;;;;;12.42;86.08;102271.25;5073964;28;20134;-34
2022/05/07 04:29:57;;;;;;;13.32;12.02;;;;;;;12.58;85.25;102272.72;5074896;28;20028;-34
2022/05/07 04:32:23;;;;;;;12.45;11.25;;;;;;;12.50;86.19;102279.22;5074144;28;20179;-34
2022/05/07 04:34:49;;;;;;;14.02;12.63;;;;;;;12.47;85.82;102274.19;5074285;28;20025;-34
2022/05/07 04:37:14;;;;;;;14.80;11.57;;;;;;;12.40;86.08;102262.50;5074756;28;20089;-34
2022/05/07 04:39:39;;;;;;;13.50;12.13;;;;;;;12.46;85.68;102269.81;5074236;28;20050;-34
2022/05/07 04:42:05;;;;;;;14.10;12.53;;;;;;;12.47;86.16;102271.47;5073880;28;20029;-34
2022/05/07 04:44:30;;;;;;;13.63;11.45;;;;;;;12.48;85.92;102275.84;5073873;28;20024;-34
2022/05/07 04:46:56;;;;;;;12.87;11.57;;;;;;;12.51;86.21;102271.91;5073864;28;20032;-34
2022/05/07 04:49:22;;;;;;;16.80;12.75;;;;;;;12.55;86.17;102284.84;5073817;28;20029;-34
2022/05/07 04:51:50;;;;;;;13.25;11.63;;;;;;;12.67;85.75;102278.78;5073948;28;20029;-34
2022/05/07 04:54:20;;;;;;;13.18;11.88;;;;;;;12.67;85.89;102278.78;5073618;28;20048;-34
2022/05/07 04:56:46;;;;;;;13.40;11.95;;;;;;;12.63;86.79;102275.63;5073860;28;20047;-34
2022/05/07 04:59:16;;;;;;;13.82;12.43;;;;;;;12.70;86.46;102278.38;5073835;28;20024;-34
2022/05/07 05:01:42;;;;;;;13.35;12.05;;;;;;;12.69;86.43;102288.38;5073470;28;20089;-34
2022/05/07 05:04:07;;;;;;;13.00;11.73;;;;;;;12.74;85.90;102290.47;5073719;28;20111;-34
2022/05/07 05:06:33;;;;;;;13.27;11.95;;;;;;;12.75;85.92;102281.28;5073983;28;20464;-34
2022/05/07 05:08:58;;;;;;;12.93;11.63;;;;;;;12.74;86.03;102285.88;5073538;28;20029;-34
2022/05/07 05:11:23;;;;;;;14.20;12.53;;;;;;;12.81;86.17;102294.00;5073786;28;20629;-34
2022/05/07 05:13:49;;;;;;;13.93;12.45;;;;;;;12.79;85.77;102291.50;5073362;28;20328;-34
2022/05/07 05:16:14;;;;;;;13.30;12.07;;;;;;;12.77;85.30;102288.16;5072576;28;20037;-34
2022/05/07 05:18:40;;;;;;;13.60;12.20;;;;;;;12.82;85.27;102290.22;5073437;28;20021;-34
2022/05/07 05:21:06;;;;;;;14.23;12.40;;;;;;;12.97;84.77;102307.13;5073246;28;20036;-34
2022/05/07 05:23:31;;;;;;;13.77;12.30;;;;;;;13.03;83.62;102313.59;5072996;28;20020;-35
2022/05/07 05:25:57;;;;;;;13.53;12.10;;;;;;;13.06;83.16;102310.47;5073531;28;20055;-35
2022/05/07 05:28:22;;;;;;;14.27;12.82;;;;;;;13.13;83.80;102317.56;5072993;28;20543;-35
2022/05/07 05:30:51;;;;;;;16.02;11.07;;;;;;;13.26;82.65;102313.16;5073729;28;20025;-35
2022/05/07 05:33:17;;;;;;;15.48;11.75;;;;;;;13.36;82.22;102317.09;5072629;28;20477;-35
2022/05/07 05:35:43;;;;;;;14.02;12.52;;;;;;;13.34;81.50;102312.94;5073628;28;20074;-35
2022/05/07 05:38:08;;;;;;;18.90;12.23;;;;;;;13.36;80.97;102316.25;5072639;28;20025;-35
2022/05/07 05:40:34;;;;;;;13.27;11.98;;;;;;;13.54;80.52;102326.47;5073365;28;20573;-35
2022/05/07 05:43:00;;;;;;;14.00;12.50;;;;;;;13.53;79.86;102322.91;5071887;28;20060;-35
2022/05/07 05:45:27;;;;;;;12.50;11.13;;;;;;;13.66;79.66;102330.16;5073082;28;20049;-35
2022/05/07 05:47:52;;;;;;;14.32;11.52;;;;;;;13.69;79.06;102335.19;5072870;28;20037;-35
2022/05/07 05:50:18;;;;;;;12.88;11.57;;;;;;;13.71;78.95;102315.91;5072824;28;20032;-35
2022/05/07 05:52:43;;;;;;;12.75;11.48;;;;;;;13.72;78.76;102315.72;5072703;28;20115;-35
2022/05/07 05:55:09;;;;;;;15.90;12.50;;;;;;;13.83;78.82;102327.81;5073494;28;20032;-35
2022/05/07 05:57:34;;;;;;;15.18;11.65;;;;;;;13.77;78.05;102317.78;5072900;28;20048;-35
2022/05/07 05:59:59;;;;;;;12.60;11.18;;;;;;;13.86;78.40;102320.06;5072850;28;20104;-35
2022/05/07 06:02:25;;;;;;;13.17;11.57;;;;;;;13.93;78.10;102330.06;5072625;28;20028;-35
2022/05/07 06:04:50;;;;;;;14.33;10.60;;;;;;;13.93;77.87;102319.19;5072624;28;20071;-35
2022/05/07 06:07:15;;;;;;;20.43;12.47;;;;;;;14.01;78.22;102324.38;5072718;28;20334;-35
2022/05/07 06:09:40;;;;;;;13.27;10.77;;;;;;;14.02;78.21;102318.72;5072331;28;20032;-35
2022/05/07 06:12:06;;;;;;;14.93;11.27;;;;;;;14.14;77.68;102325.09;5071544;28;20028;-35
2022/05/07 06:14:31;;;;;;;14.45;11.82;;;;;;;14.15;77.63;102326.78;5072945;28;20094;-35
2022/05/07 06:16:57;;;;;;;12.65;10.75;;;;;;;14.21;77.27;102324.25;5072837;28;20028;-35
2022/05/07 06:19:22;;;;;;;;;;;;;;;14.43;77.71;102336.44;5072861;28;20040;-35
2022/05/07 06:21:47;;;;;;;14.57;11.83;;;;;;;14.38;77.16;102336.25;5073777;28;19918;-35
2022/05/07 06:29:40;;;;;;;14.82;11.13;;;;;;;14.49;76.73;102313.78;5076395;28;20040;-35
2022/05/07 06:32:06;;;;;;;;;;;;;;;14.85;76.98;102339.50;5077345;28;20041;-35
2022/05/07 06:34:31;;;;;;;15.43;11.27;;;;;;;14.81;76.44;102341.00;5076450;28;19918;-35
2022/05/07 06:36:57;;;;;;;;;;;;;;;14.99;76.62;102332.88;5077009;28;20054;-35
2022/05/07 06:39:23;;;;;;;16.23;10.52;;;;;;;15.00;75.66;102334.53;5075913;28;19912;-35
2022/05/07 06:41:50;;;;;;;14.68;11.63;;;;;;;14.91;75.76;102317.63;5076584;28;20384;-35
2022/05/07 06:44:15;;;;;;;15.70;11.52;;;;;;;15.12;75.60;102327.25;5076335;28;20044;-35
2022/05/07 06:46:40;;;;;;;;;;;;;;;15.30;75.62;102333.81;5077307;28;20028;-35
2022/05/07 06:49:06;;;;;;;13.63;10.67;;;;;;;15.28;74.86;102341.38;5076592;28;20277;-35
2022/05/07 06:51:33;;;;;;;;;;;;;;;15.43;75.19;102339.13;5076691;28;20086;-35
2022/05/07 06:53:58;;;;;;;13.40;10.68;;;;;;;15.44;74.26;102341.59;5076668;28;19930;-35
2022/05/07 06:56:24;;;;;;;14.55;11.05;;;;;;;15.45;73.60;102332.34;5075621;28;20099;-35
2022/05/07 06:58:49;;;;;;;14.88;10.55;;;;;;;15.57;73.92;102334.34;5076741;28;20035;-35
2022/05/07 07:01:14;;;;;;;;;;;;;;;15.70;74.39;102339.66;5076325;28;20441;-35
2022/05/07 07:03:40;;;;;;;15.30;11.38;;;;;;;15.69;73.60;102333.38;5075839;28;19912;-35
2022/05/07 07:06:06;;;;;;;;;;;;;;;15.87;74.04;102340.69;5076461;28;20346;-35
2022/05/07 07:08:31;;;;;;;12.90;10.88;;;;;;;15.78;72.33;102341.25;5075702;28;19912;-35
2022/05/07 07:10:58;;;;;;;12.35;10.25;;;;;;;15.88;71.93;102339.63;5075381;28;20032;-35
2022/05/07 07:13:23;;;;;;;14.95;11.30;;;;;;;15.93;71.78;102336.22;5075991;28;20036;-35
2022/05/07 07:15:49;;;;;;;;;;;;;;;16.08;73.50;102336.63;5075849;28;20024;-35
2022/05/07 07:18:14;;;;;;;13.52;10.20;;;;;;;16.07;72.16;102337.69;5075484;28;19912;-35
2022/05/07 07:20:41;;;;;;;15.68;11.10;;;;;;;16.12;71.58;102337.84;5075331;28;20060;-35
2022/05/07 07:23:11;;;;;;;15.35;11.25;;;;;;;16.10;70.80;102330.94;5075361;28;20025;-35
2022/05/07 07:25:41;;;;;;;13.88;11.10;;;;;;;16.16;71.25;102333.59;5075643;28;20052;-35
2022/05/07 07:28:11;;;;;;;13.13;10.32;;;;;;;16.18;69.84;102320.53;5075035;28;20157;-35
2022/05/07 07:30:37;;;;;;;15.00;11.27;;;;;;;16.27;70.19;102331.94;5075603;28;20214;-35
2022/05/07 07:33:04;;;;;;;15.60;11.35;;;;;;;16.32;70.24;102318.44;5075044;28;20024;-35
2022/05/07 07:35:30;;;;;;;15.10;10.82;;;;;;;16.35;70.02;102330.78;5075318;28;20024;-35
2022/05/07 07:37:56;;;;;;;;;;;;;;;16.54;69.43;102321.44;5075663;28;20461;-35
2022/05/07 07:40:21;;;;;;;14.18;10.70;;;;;;;16.54;69.07;102323.31;5075228;28;19913;-36
2022/05/07 07:42:46;;;;;;;;;;;;;;;16.70;69.54;102326.22;5075561;28;20032;-35
2022/05/07 07:47:57;;;;;;;15.23;9.63;;;;;;;17.00;67.65;102322.56;5074850;28;20308;-35
2022/05/07 07:50:40;;;;;;;;;;;;;;;17.18;68.56;102327.94;5075772;28;20086;-35
2022/05/07 07:53:10;;;;;;;15.25;9.15;;;;;;;17.17;66.27;102315.31;5074990;28;19912;-35
2022/05/07 07:55:36;;;;;;;15.18;9.60;;;;;;;17.31;66.35;102326.81;5074909;28;20040;-36
2022/05/07 07:58:06;;;;;;;14.23;10.57;;;;;;;17.41;65.79;102334.41;5075547;28;20024;-35
2022/05/07 08:00:33;;;;;;;11.48;10.00;;;;;;;17.51;65.56;102331.91;5075130;28;20534;-36
2022/05/07 08:03:00;;;;;;;416.13;62.38;;;;;;;17.49;65.29;102326.69;5074272;28;20161;-36
2022/05/07 08:05:31;;;;;;;27.75;14.93;;;;;;;17.57;65.36;102330.09;5074905;28;20028;-36
2022/05/07 08:13:25;;;;;;;15.30;10.63;;;;;;;17.81;63.18;102323.50;5074453;28;20074;-36
2022/05/07 08:15:51;;;;;;;;;;;;;;;17.96;65.37;102323.81;5075676;28;20063;-41
2022/05/07 08:18:16;;;;;;;14.25;11.25;;;;;;;17.87;62.88;102325.28;5074662;28;19955;-36
2022/05/07 08:20:42;;;;;;;;;;;;;;;18.06;65.20;102325.94;5074833;28;20478;-36
2022/05/07 08:23:09;;;;;;;17.38;11.63;;;;;;;18.03;62.10;102334.63;5074906;28;19912;-36
2022/05/07 08:25:35;;;;;;;17.77;11.23;;;;;;;18.10;62.03;102323.50;5074481;28;20484;-35
2022/05/07 08:28:00;;;;;;;13.95;10.60;;;;;;;18.12;62.52;102327.69;5074234;28;20575;-35
2022/05/07 08:30:26;;;;;;;;;;;;;;;18.26;64.18;102331.78;5074617;28;20111;-36
2022/05/07 08:32:51;;;;;;;13.48;10.68;;;;;;;18.19;62.20;102342.03;5074846;28;19935;-36
2022/05/07 08:35:17;;;;;;;;;;;;;;;18.33;62.54;102336.25;5075286;28;20050;-36
2022/05/07 08:37:42;;;;;;;15.98;10.80;;;;;;;18.25;61.41;102337.47;5073992;28;19916;-36
2022/05/07 08:40:08;;;;;;;;;;;;;;;18.39;61.31;102340.75;5074899;28;20037;-36
2022/05/07 08:42:36;;;;;;;16.17;10.43;;;;;;;18.46;61.11;102341.44;5073909;28;19912;-36
2022/05/07 08:45:02;;;;;;;11.98;8.80;;;;;;;18.66;60.32;102341.75;5073517;28;20031;-36
2022/05/07 08:47:27;;;;;;;;;;;;;;;18.86;60.98;102335.81;5074491;28;20032;-36
2022/05/07 08:49:55;;;;;;;16.63;8.97;;;;;;;18.86;57.48;102327.59;5073813;28;19920;-35
2022/05/07 08:52:22;;;;;;;11.55;9.52;;;;;;;19.03;57.39;102335.78;5074197;28;20286;-35
2022/05/07 08:54:48;;;;;;;15.07;9.85;;;;;;;18.97;57.68;102334.88;5073324;28;20032;-36
2022/05/07 08:57:13;;;;;;;;;;;;;;;19.21;59.17;102331.94;5074723;28;20032;-36
2022/05/07 08:59:39;;;;;;;13.23;9.25;;;;;;;19.14;56.29;102334.03;5073501;28;19909;-36
2022/05/07 09:02:05;;;;;;;15.23;10.10;;;;;;;19.02;56.28;102334.13;5073091;28;20464;-35
2022/05/07 09:04:30;;;;;;;;;;;;;;;19.13;58.95;102337.84;5073778;28;20024;-36
2022/05/07 09:06:57;;;;;;;12.85;8.68;;;;;;;18.92;57.39;102333.97;5073382;28;19908;-36
2022/05/07 09:09:23;;;;;;;12.07;8.73;;;;;;;18.85;57.34;102333.31;5073129;28;20026;-35
2022/05/07 09:11:48;;;;;;;;;;;;;;;18.94;58.84;102334.56;5074128;28;20388;-36
2022/05/07 09:14:18;;;;;;;11.07;8.27;;;;;;;18.79;57.48;102335.16;5073120;28;19995;-36
2022/05/07 09:16:50;;;;;;;13.80;8.32;;;;;;;18.86;57.51;102330.31;5073281;28;20059;-36
2022/05/07 09:19:30;;;;;;;10.45;8.45;;;;;;;19.06;58.23;102329.81;5071848;28;20028;-35
2022/05/07 09:22:09;;;;;;;10.80;8.55;;;;;;;19.26;58.07;102332.81;5073205;28;20078;-35
2022/05/07 09:24:37;;;;;;;12.75;8.23;;;;;;;19.34;56.48;102326.09;5073364;28;20110;-36
2022/05/07 09:27:04;;;;;;;10.70;7.75;;;;;;;19.54;55.62;102320.84;5073243;28;20119;-36
2022/05/07 09:29:30;;;;;;;13.65;8.40;;;;;;;19.51;53.88;102326.00;5073113;28;20074;-36
2022/05/07 09:32:09;;;;;;;11.02;7.55;;;;;;;19.70;55.00;102330.13;5073085;28;20120;-36
2022/05/07 09:37:34;;;;;;;14.98;7.43;;;;;;;19.95;53.55;102315.84;5073581;28;20495;-36
2022/05/07 09:40:03;;;;;;;11.90;7.20;;;;;;;20.31;53.82;102319.81;5072712;28;20092;-36
2022/05/07 09:42:30;;;;;;;11.25;7.65;;;;;;;20.49;52.17;102315.03;5072860;28;20082;-36
2022/05/07 09:44:56;;;;;;;15.30;9.25;;;;;;;20.66;51.42;102318.47;5072958;28;20392;-35
2022/05/07 09:47:21;;;;;;;13.80;9.07;;;;;;;20.74;52.10;102329.00;5073025;28;20055;-35
2022/05/07 09:52:32;;;;;;;11.18;7.93;;;;;;;20.69;50.36;102315.22;5072681;28;20047;-36
2022/05/07 09:57:41;;;;;;;12.23;7.90;;;;;;;21.31;50.57;102320.00;5072170;28;20452;-36
2022/05/07 10:00:11;;;;;;;13.10;9.13;;;;;;;21.32;49.87;102318.91;5072818;28;20028;-36
2022/05/07 10:02:57;;;;;;;13.38;9.10;;;;;;;21.38;50.57;102321.72;5072720;28;20043;-36
2022/05/07 10:05:51;;;;;;;11.73;8.70;;;;;;;21.47;50.29;102322.81;5073033;28;20090;-36
2022/05/07 10:08:20;;;;;;;11.57;8.13;;;;;;;21.58;49.60;102319.03;5070136;28;20130;-36
2022/05/07 10:10:47;;;;;;;12.65;8.82;;;;;;;21.63;48.71;102299.78;5073265;28;20032;-36
2022/05/07 10:13:16;;;;;;;13.80;8.95;;;;;;;21.58;48.51;102314.38;5073222;28;20032;-36
2022/05/07 10:15:44;;;;;;;10.77;8.77;;;;;;;21.53;48.47;102308.84;5073408;28;20035;-36
2022/05/07 10:18:14;;;;;;;11.55;8.00;;;;;;;21.55;48.56;102312.13;5072657;28;20036;-36
2022/05/07 10:20:48;;;;;;;11.10;8.02;;;;;;;21.77;48.55;102311.97;5072607;28;20064;-36
2022/05/07 10:23:15;;;;;;;9.27;7.45;;;;;;;22.00;48.38;102313.38;5073377;28;20024;-36
2022/05/07 10:25:45;;;;;;;27.30;9.23;;;;;;;21.95;47.86;102296.00;5072565;28;20048;-36
2022/05/07 10:28:12;;;;;;;85.03;12.57;;;;;;;22.07;47.15;102297.41;5072532;28;20116;-36
2022/05/07 10:30:56;;;;;;;32.67;9.07;;;;;;;22.23;48.45;102306.56;5072491;28;20024;-36
2022/05/07 10:33:22;;;;;;;11.55;7.90;;;;;;;22.18;46.63;102309.31;5072545;28;20028;-36
2022/05/07 10:35:55;;;;;;;12.30;8.60;;;;;;;22.20;47.19;102307.09;5072814;28;20389;-36
2022/05/07 10:38:24;;;;;;;12.50;8.25;;;;;;;22.23;46.94;102301.03;5072652;28;20024;-36
2022/05/07 10:40:53;;;;;;;13.27;8.30;;;;;;;22.16;46.69;102311.53;5072466;28;20107;-36
2022/05/07 10:43:35;;;;;;;10.05;8.02;;;;;;;22.24;47.45;102297.19;5072312;28;20017;-36
2022/05/07 10:46:07;;;;;;;10.90;7.80;;;;;;;22.52;46.87;102304.09;5073150;28;20028;-36
2022/05/07 10:49:08;;;;;;;10.00;7.82;;;;;;;22.90;47.12;102306.56;5072369;28;20036;-36
2022/05/07 10:51:36;;;;;;;8.90;7.25;;;;;;;23.15;46.00;102303.75;5072710;28;20028;-36
2022/05/07 10:54:14;;;;;;;10.25;7.50;;;;;;;23.22;45.13;102307.00;5072085;28;20036;-36
2022/05/07 10:56:54;;;;;;;12.02;8.55;;;;;;;23.48;44.93;102296.72;5072233;28;20036;-36
2022/05/07 10:59:21;;;;;;;14.60;8.40;;;;;;;23.47;44.71;102299.75;5072777;28;20059;-36
2022/05/07 11:01:47;;;;;;;9.50;8.10;;;;;;;23.43;44.96;102279.34;5071907;28;20453;-36
2022/05/07 11:04:14;;;;;;;11.07;7.88;;;;;;;23.33;45.39;102296.78;5071995;28;20460;-36
2022/05/07 11:06:39;;;;;;;9.55;7.40;;;;;;;23.55;44.31;102294.47;5072071;28;20073;-36
2022/05/07 11:09:05;;;;;;;10.17;8.27;;;;;;;23.32;43.83;102295.94;5075334;28;20036;-36
2022/05/07 11:11:30;;;;;;;8.95;8.00;;;;;;;23.13;45.33;102294.91;5076602;28;20290;-36
2022/05/07 11:13:56;;;;;;;11.90;7.97;;;;;;;22.97;45.72;102285.03;5076263;28;20047;-36
2022/05/07 11:16:23;;;;;;;12.40;7.97;;;;;;;22.67;46.36;102300.50;5075785;28;20028;-36
2022/05/07 11:18:51;;;;;;;10.23;7.95;;;;;;;22.61;46.42;102293.34;5075667;28;20029;-36
2022/05/07 11:21:26;;;;;;;34.03;11.02;;;;;;;22.36;47.86;102295.00;5076329;28;20409;-36
2022/05/07 11:23:56;;;;;;;61.47;14.57;;;;;;;22.66;47.62;102300.78;5075522;28;20021;-36
2022/05/07 11:26:23;;;;;;;14.95;8.30;;;;;;;23.04;47.23;102293.84;5076657;28;20350;-36
2022/05/07 11:28:49;;;;;;;29.63;9.98;;;;;;;22.79;46.53;102284.50;5075226;28;20112;-36
2022/05/07 11:31:28;;;;;;;10.23;7.10;;;;;;;22.87;47.82;102294.13;5075773;28;20031;-36
2022/05/07 11:34:07;;;;;;;10.80;8.10;;;;;;;23.18;47.31;102294.06;5075489;28;20024;-36
2022/05/07 11:36:34;;;;;;;9.15;7.47;;;;;;;23.38;46.46;102288.47;5075466;28;20101;-36
2022/05/07 11:39:01;;;;;;;12.82;7.68;;;;;;;23.58;45.20;102288.38;5075435;28;20028;-36
2022/05/07 11:41:27;;;;;;;15.77;7.93;;;;;;;23.67;44.34;102285.91;5075325;28;20021;-36
2022/05/07 11:46:54;;;;;;;11.05;7.00;;;;;;;23.89;44.74;102271.66;5075646;28;20086;-36
2022/05/07 11:49:34;;;;;;;10.75;7.55;;;;;;;24.13;44.43;102271.75;5075415;28;20090;-36
2022/05/07 11:52:08;;;;;;;11.00;8.25;;;;;;;23.82;43.55;102282.22;5075865;28;20060;-36
2022/05/07 11:54:34;;;;;;;8.68;7.07;;;;;;;23.53;44.10;102271.84;5075032;28;20020;-36